sensor_id;sensor_type;location;lat;lon;timestamp;P1;durP1;ratioP1;P2;durP2;ratioP2
36839;SDS011;24406;51.640;9.566;2024-02-21T00:08:41;14.40;;;5.95;;
36839;SDS011;24406;51.640;9.566;2024-02-21T00:13:56;16.02;;;7.55;;
36839;SDS011;24406;51.640;9.566;2024-02-21T00:19:01;13.13;;;6.68;;
36839;SDS011;24406;51.640;9.566;2024-02-21T00:24:51;17.02;;;6.80;;
36839;SDS011;24406;51.640;9.566;2024-02-21T00:30:04;15.13;;;6.75;;
36839;SDS011;24406;51.640;9.566;2024-02-21T00:35:12;13.25;;;5.63;;
36839;SDS011;24406;51.640;9.566;2024-02-21T00:40:21;17.67;;;6.20;;
36839;SDS011;24406;51.640;9.566;2024-02-21T00:51:52;14.88;;;6.50;;
36839;SDS011;24406;51.640;9.566;2024-02-21T00:57:02;17.38;;;7.15;;
36839;SDS011;24406;51.640;9.566;2024-02-21T01:02:07;14.55;;;6.32;;
36839;SDS011;24406;51.640;9.566;2024-02-21T01:07:17;21.08;;;7.20;;
36839;SDS011;24406;51.640;9.566;2024-02-21T01:12:19;19.65;;;5.95;;
36839;SDS011;24406;51.640;9.566;2024-02-21T01:17:21;14.30;;;6.05;;
36839;SDS011;24406;51.640;9.566;2024-02-21T01:22:33;15.85;;;6.93;;
36839;SDS011;24406;51.640;9.566;2024-02-21T01:27:37;15.15;;;7.35;;
36839;SDS011;24406;51.640;9.566;2024-02-21T01:32:45;16.58;;;7.63;;
36839;SDS011;24406;51.640;9.566;2024-02-21T01:37:49;16.80;;;8.63;;
36839;SDS011;24406;51.640;9.566;2024-02-21T01:42:54;16.88;;;7.10;;
36839;SDS011;24406;51.640;9.566;2024-02-21T01:47:57;23.27;;;10.10;;
36839;SDS011;24406;51.640;9.566;2024-02-21T01:53:09;14.27;;;8.32;;
36839;SDS011;24406;51.640;9.566;2024-02-21T01:58:55;19.58;;;9.23;;
36839;SDS011;24406;51.640;9.566;2024-02-21T02:09:30;17.83;;;9.38;;
36839;SDS011;24406;51.640;9.566;2024-02-21T02:14:41;21.25;;;12.13;;
36839;SDS011;24406;51.640;9.566;2024-02-21T02:19:55;22.45;;;11.05;;
36839;SDS011;24406;51.640;9.566;2024-02-21T02:25:06;18.60;;;11.27;;
36839;SDS011;24406;51.640;9.566;2024-02-21T02:30:18;21.95;;;12.57;;
36839;SDS011;24406;51.640;9.566;2024-02-21T02:35:33;18.63;;;11.30;;
36839;SDS011;24406;51.640;9.566;2024-02-21T02:40:41;17.45;;;10.80;;
36839;SDS011;24406;51.640;9.566;2024-02-21T02:45:44;21.50;;;10.73;;
36839;SDS011;24406;51.640;9.566;2024-02-21T02:50:45;16.73;;;10.45;;
36839;SDS011;24406;51.640;9.566;2024-02-21T02:55:48;20.25;;;10.10;;
36839;SDS011;24406;51.640;9.566;2024-02-21T03:00:50;18.23;;;10.35;;
36839;SDS011;24406;51.640;9.566;2024-02-21T03:05:52;22.58;;;11.02;;
36839;SDS011;24406;51.640;9.566;2024-02-21T03:10:55;18.25;;;10.63;;
36839;SDS011;24406;51.640;9.566;2024-02-21T03:15:57;17.10;;;9.60;;
36839;SDS011;24406;51.640;9.566;2024-02-21T03:20:58;27.48;;;12.23;;
36839;SDS011;24406;51.640;9.566;2024-02-21T03:26:02;20.80;;;10.90;;
36839;SDS011;24406;51.640;9.566;2024-02-21T03:31:07;25.17;;;10.82;;
36839;SDS011;24406;51.640;9.566;2024-02-21T03:36:12;15.93;;;9.80;;
36839;SDS011;24406;51.640;9.566;2024-02-21T03:41:16;20.02;;;10.10;;
36839;SDS011;24406;51.640;9.566;2024-02-21T03:46:19;19.80;;;9.65;;
36839;SDS011;24406;51.640;9.566;2024-02-21T03:51:21;20.27;;;10.57;;
36839;SDS011;24406;51.640;9.566;2024-02-21T03:56:25;21.83;;;9.20;;
36839;SDS011;24406;51.640;9.566;2024-02-21T04:01:27;19.00;;;9.77;;
36839;SDS011;24406;51.640;9.566;2024-02-21T04:06:31;14.90;;;9.50;;
36839;SDS011;24406;51.640;9.566;2024-02-21T04:11:34;17.58;;;9.85;;
36839;SDS011;24406;51.640;9.566;2024-02-21T04:16:36;14.68;;;9.82;;
36839;SDS011;24406;51.640;9.566;2024-02-21T04:21:37;15.07;;;8.57;;
36839;SDS011;24406;51.640;9.566;2024-02-21T04:26:41;15.93;;;10.00;;
36839;SDS011;24406;51.640;9.566;2024-02-21T04:31:43;16.10;;;9.02;;
36839;SDS011;24406;51.640;9.566;2024-02-21T04:36:45;12.13;;;8.30;;
36839;SDS011;24406;51.640;9.566;2024-02-21T04:41:49;15.90;;;8.68;;
36839;SDS011;24406;51.640;9.566;2024-02-21T04:46:51;13.60;;;9.27;;
36839;SDS011;24406;51.640;9.566;2024-02-21T04:51:55;14.45;;;9.35;;
36839;SDS011;24406;51.640;9.566;2024-02-21T04:56:58;18.67;;;9.38;;
36839;SDS011;24406;51.640;9.566;2024-02-21T05:02:00;14.52;;;8.55;;
36839;SDS011;24406;51.640;9.566;2024-02-21T05:07:02;15.13;;;8.43;;
36839;SDS011;24406;51.640;9.566;2024-02-21T05:12:06;20.67;;;10.15;;
36839;SDS011;24406;51.640;9.566;2024-02-21T05:17:08;17.63;;;9.43;;
36839;SDS011;24406;51.640;9.566;2024-02-21T05:22:09;15.77;;;9.55;;
36839;SDS011;24406;51.640;9.566;2024-02-21T05:27:12;17.20;;;9.82;;
36839;SDS011;24406;51.640;9.566;2024-02-21T05:32:14;17.63;;;9.57;;
36839;SDS011;24406;51.640;9.566;2024-02-21T05:37:16;27.85;;;10.70;;
36839;SDS011;24406;51.640;9.566;2024-02-21T05:42:20;15.57;;;8.73;;
36839;SDS011;24406;51.640;9.566;2024-02-21T05:47:21;17.58;;;8.55;;
36839;SDS011;24406;51.640;9.566;2024-02-21T05:52:23;13.10;;;9.00;;
36839;SDS011;24406;51.640;9.566;2024-02-21T05:57:26;15.55;;;8.55;;
36839;SDS011;24406;51.640;9.566;2024-02-21T06:02:28;22.98;;;11.15;;
36839;SDS011;24406;51.640;9.566;2024-02-21T06:07:31;14.55;;;8.95;;
36839;SDS011;24406;51.640;9.566;2024-02-21T06:12:34;21.38;;;12.20;;
36839;SDS011;24406;51.640;9.566;2024-02-21T06:17:36;23.38;;;12.00;;
36839;SDS011;24406;51.640;9.566;2024-02-21T06:22:38;23.35;;;11.35;;
36839;SDS011;24406;51.640;9.566;2024-02-21T06:27:41;21.02;;;10.70;;
36839;SDS011;24406;51.640;9.566;2024-02-21T06:32:43;51.83;;;20.73;;
36839;SDS011;24406;51.640;9.566;2024-02-21T06:37:45;45.45;;;24.73;;
36839;SDS011;24406;51.640;9.566;2024-02-21T06:42:52;16.98;;;11.38;;
36839;SDS011;24406;51.640;9.566;2024-02-21T06:47:54;21.85;;;10.77;;
36839;SDS011;24406;51.640;9.566;2024-02-21T06:52:56;15.55;;;10.68;;
36839;SDS011;24406;51.640;9.566;2024-02-21T06:57:59;16.63;;;10.02;;
36839;SDS011;24406;51.640;9.566;2024-02-21T07:03:09;21.42;;;10.75;;
36839;SDS011;24406;51.640;9.566;2024-02-21T07:08:11;20.90;;;10.32;;
36839;SDS011;24406;51.640;9.566;2024-02-21T07:13:14;15.45;;;8.38;;
36839;SDS011;24406;51.640;9.566;2024-02-21T07:18:43;15.40;;;8.48;;
36839;SDS011;24406;51.640;9.566;2024-02-21T07:24:28;15.88;;;9.52;;
36839;SDS011;24406;51.640;9.566;2024-02-21T07:34:59;14.50;;;9.20;;
36839;SDS011;24406;51.640;9.566;2024-02-21T07:40:02;16.50;;;9.23;;
36839;SDS011;24406;51.640;9.566;2024-02-21T07:45:08;15.55;;;8.75;;
36839;SDS011;24406;51.640;9.566;2024-02-21T07:50:40;12.52;;;7.90;;
36839;SDS011;24406;51.640;9.566;2024-02-21T07:55:56;10.43;;;7.65;;
36839;SDS011;24406;51.640;9.566;2024-02-21T08:13:35;10.98;;;7.88;;
36839;SDS011;24406;51.640;9.566;2024-02-21T08:18:40;16.50;;;7.35;;
36839;SDS011;24406;51.640;9.566;2024-02-21T08:23:50;11.57;;;7.13;;
36839;SDS011;24406;51.640;9.566;2024-02-21T08:29:08;13.35;;;7.47;;
36839;SDS011;24406;51.640;9.566;2024-02-21T08:35:02;14.02;;;6.60;;
36839;SDS011;24406;51.640;9.566;2024-02-21T08:40:05;11.88;;;7.45;;
36839;SDS011;24406;51.640;9.566;2024-02-21T08:45:35;11.05;;;6.53;;
36839;SDS011;24406;51.640;9.566;2024-02-21T08:50:51;16.83;;;9.50;;
36839;SDS011;24406;51.640;9.566;2024-02-21T08:57:00;8.98;;;5.70;;
36839;SDS011;24406;51.640;9.566;2024-02-21T09:02:37;9.02;;;6.28;;
36839;SDS011;24406;51.640;9.566;2024-02-21T09:08:26;9.25;;;5.72;;
36839;SDS011;24406;51.640;9.566;2024-02-21T09:14:38;12.00;;;5.88;;
36839;SDS011;24406;51.640;9.566;2024-02-21T09:20:13;10.98;;;6.25;;
36839;SDS011;24406;51.640;9.566;2024-02-21T09:25:42;17.52;;;6.10;;
36839;SDS011;24406;51.640;9.566;2024-02-21T09:31:29;8.93;;;5.38;;
36839;SDS011;24406;51.640;9.566;2024-02-21T09:48:29;13.70;;;5.65;;
36839;SDS011;24406;51.640;9.566;2024-02-21T09:53:38;9.75;;;5.25;;
36839;SDS011;24406;51.640;9.566;2024-02-21T09:58:49;7.22;;;5.30;;
36839;SDS011;24406;51.640;9.566;2024-02-21T10:04:00;9.82;;;4.85;;
36839;SDS011;24406;51.640;9.566;2024-02-21T10:14:26;9.38;;;4.57;;
36839;SDS011;24406;51.640;9.566;2024-02-21T10:19:32;10.30;;;4.80;;
36839;SDS011;24406;51.640;9.566;2024-02-21T10:30:49;7.50;;;4.35;;
36839;SDS011;24406;51.640;9.566;2024-02-21T10:36:05;8.80;;;4.93;;
36839;SDS011;24406;51.640;9.566;2024-02-21T10:41:11;6.85;;;3.97;;
36839;SDS011;24406;51.640;9.566;2024-02-21T10:46:24;9.48;;;4.75;;
36839;SDS011;24406;51.640;9.566;2024-02-21T10:51:48;11.93;;;4.80;;
36839;SDS011;24406;51.640;9.566;2024-02-21T10:56:59;7.60;;;4.70;;
36839;SDS011;24406;51.640;9.566;2024-02-21T11:02:17;15.25;;;6.32;;
36839;SDS011;24406;51.640;9.566;2024-02-21T11:07:32;13.75;;;9.80;;
36839;SDS011;24406;51.640;9.566;2024-02-21T11:13:04;8.50;;;5.13;;
36839;SDS011;24406;51.640;9.566;2024-02-21T11:18:09;12.57;;;5.72;;
36839;SDS011;24406;51.640;9.566;2024-02-21T11:23:26;10.50;;;5.80;;
36839;SDS011;24406;51.640;9.566;2024-02-21T11:28:58;12.23;;;5.93;;
36839;SDS011;24406;51.640;9.566;2024-02-21T11:34:03;10.40;;;5.90;;
36839;SDS011;24406;51.640;9.566;2024-02-21T11:39:06;8.85;;;5.07;;
36839;SDS011;24406;51.640;9.566;2024-02-21T11:44:09;12.02;;;5.07;;
36839;SDS011;24406;51.640;9.566;2024-02-21T11:49:10;7.32;;;4.93;;
36839;SDS011;24406;51.640;9.566;2024-02-21T11:55:00;8.35;;;4.72;;
36839;SDS011;24406;51.640;9.566;2024-02-21T12:00:12;9.50;;;4.57;;
36839;SDS011;24406;51.640;9.566;2024-02-21T12:05:16;12.57;;;5.60;;
36839;SDS011;24406;51.640;9.566;2024-02-21T12:10:19;9.50;;;4.13;;
36839;SDS011;24406;51.640;9.566;2024-02-21T12:15:28;11.02;;;4.28;;
36839;SDS011;24406;51.640;9.566;2024-02-21T12:20:37;12.27;;;3.83;;
36839;SDS011;24406;51.640;9.566;2024-02-21T12:25:46;9.38;;;3.83;;
36839;SDS011;24406;51.640;9.566;2024-02-21T12:30:57;7.32;;;4.10;;
36839;SDS011;24406;51.640;9.566;2024-02-21T12:36:09;9.27;;;3.95;;
36839;SDS011;24406;51.640;9.566;2024-02-21T12:41:15;10.30;;;3.50;;
36839;SDS011;24406;51.640;9.566;2024-02-21T12:46:19;9.18;;;3.83;;
36839;SDS011;24406;51.640;9.566;2024-02-21T12:51:24;7.25;;;3.78;;
36839;SDS011;24406;51.640;9.566;2024-02-21T12:56:36;7.70;;;3.47;;
36839;SDS011;24406;51.640;9.566;2024-02-21T13:01:57;12.07;;;5.35;;
36839;SDS011;24406;51.640;9.566;2024-02-21T13:07:23;17.02;;;6.63;;
36839;SDS011;24406;51.640;9.566;2024-02-21T13:12:59;9.55;;;5.88;;
36839;SDS011;24406;51.640;9.566;2024-02-21T13:18:18;13.18;;;4.78;;
36839;SDS011;24406;51.640;9.566;2024-02-21T13:23:27;11.30;;;4.82;;
36839;SDS011;24406;51.640;9.566;2024-02-21T13:28:30;10.60;;;5.15;;
36839;SDS011;24406;51.640;9.566;2024-02-21T13:33:32;11.98;;;5.20;;
36839;SDS011;24406;51.640;9.566;2024-02-21T13:38:34;15.88;;;4.72;;
36839;SDS011;24406;51.640;9.566;2024-02-21T13:43:37;9.63;;;4.57;;
36839;SDS011;24406;51.640;9.566;2024-02-21T13:48:50;11.43;;;5.00;;
36839;SDS011;24406;51.640;9.566;2024-02-21T13:54:04;10.52;;;5.35;;
36839;SDS011;24406;51.640;9.566;2024-02-21T13:59:11;12.27;;;5.15;;
36839;SDS011;24406;51.640;9.566;2024-02-21T14:04:13;9.30;;;4.50;;
36839;SDS011;24406;51.640;9.566;2024-02-21T14:09:15;8.38;;;4.30;;
36839;SDS011;24406;51.640;9.566;2024-02-21T14:14:20;9.32;;;5.03;;
36839;SDS011;24406;51.640;9.566;2024-02-21T14:19:22;10.23;;;4.30;;
36839;SDS011;24406;51.640;9.566;2024-02-21T14:24:24;8.95;;;4.40;;
36839;SDS011;24406;51.640;9.566;2024-02-21T14:29:32;10.30;;;5.40;;
36839;SDS011;24406;51.640;9.566;2024-02-21T14:34:42;11.50;;;5.03;;
36839;SDS011;24406;51.640;9.566;2024-02-21T14:40:06;11.35;;;5.63;;
36839;SDS011;24406;51.640;9.566;2024-02-21T14:45:11;10.55;;;4.90;;
36839;SDS011;24406;51.640;9.566;2024-02-21T14:50:14;10.25;;;5.07;;
36839;SDS011;24406;51.640;9.566;2024-02-21T14:55:16;11.75;;;4.93;;
36839;SDS011;24406;51.640;9.566;2024-02-21T15:00:19;12.85;;;5.50;;
36839;SDS011;24406;51.640;9.566;2024-02-21T15:05:31;11.73;;;6.20;;
36839;SDS011;24406;51.640;9.566;2024-02-21T15:10:35;9.98;;;6.38;;
36839;SDS011;24406;51.640;9.566;2024-02-21T15:21:25;12.55;;;9.02;;
36839;SDS011;24406;51.640;9.566;2024-02-21T15:26:28;10.50;;;5.97;;
36839;SDS011;24406;51.640;9.566;2024-02-21T15:31:31;12.52;;;6.88;;
36839;SDS011;24406;51.640;9.566;2024-02-21T15:42:43;12.20;;;6.82;;
36839;SDS011;24406;51.640;9.566;2024-02-21T15:47:47;10.23;;;7.03;;
36839;SDS011;24406;51.640;9.566;2024-02-21T15:52:49;12.23;;;6.85;;
36839;SDS011;24406;51.640;9.566;2024-02-21T15:57:51;13.48;;;8.02;;
36839;SDS011;24406;51.640;9.566;2024-02-21T16:02:55;27.70;;;18.48;;
36839;SDS011;24406;51.640;9.566;2024-02-21T16:08:03;19.42;;;8.43;;
36839;SDS011;24406;51.640;9.566;2024-02-21T16:13:05;13.67;;;7.57;;
36839;SDS011;24406;51.640;9.566;2024-02-21T16:18:11;11.18;;;7.10;;
36839;SDS011;24406;51.640;9.566;2024-02-21T16:23:22;11.30;;;5.97;;
36839;SDS011;24406;51.640;9.566;2024-02-21T16:28:24;13.38;;;7.80;;
36839;SDS011;24406;51.640;9.566;2024-02-21T16:33:30;10.13;;;6.18;;
36839;SDS011;24406;51.640;9.566;2024-02-21T16:38:33;10.77;;;6.03;;
36839;SDS011;24406;51.640;9.566;2024-02-21T16:43:40;20.23;;;13.00;;
36839;SDS011;24406;51.640;9.566;2024-02-21T16:48:43;12.77;;;9.23;;
36839;SDS011;24406;51.640;9.566;2024-02-21T16:53:46;13.68;;;9.15;;
36839;SDS011;24406;51.640;9.566;2024-02-21T16:58:47;12.48;;;5.95;;
36839;SDS011;24406;51.640;9.566;2024-02-21T17:03:50;9.40;;;5.57;;
36839;SDS011;24406;51.640;9.566;2024-02-21T17:08:52;12.55;;;5.40;;
36839;SDS011;24406;51.640;9.566;2024-02-21T17:13:55;10.75;;;5.50;;
36839;SDS011;24406;51.640;9.566;2024-02-21T17:18:59;9.60;;;5.82;;
36839;SDS011;24406;51.640;9.566;2024-02-21T17:24:00;8.90;;;4.80;;
36839;SDS011;24406;51.640;9.566;2024-02-21T17:29:02;14.52;;;5.35;;
36839;SDS011;24406;51.640;9.566;2024-02-21T17:34:06;13.32;;;5.43;;
36839;SDS011;24406;51.640;9.566;2024-02-21T17:39:07;11.65;;;5.20;;
36839;SDS011;24406;51.640;9.566;2024-02-21T17:44:11;9.07;;;5.05;;
36839;SDS011;24406;51.640;9.566;2024-02-21T17:49:14;14.30;;;5.95;;
36839;SDS011;24406;51.640;9.566;2024-02-21T17:54:16;14.13;;;6.40;;
36839;SDS011;24406;51.640;9.566;2024-02-21T17:59:17;10.15;;;5.80;;
36839;SDS011;24406;51.640;9.566;2024-02-21T18:04:25;15.50;;;5.55;;
36839;SDS011;24406;51.640;9.566;2024-02-21T18:09:27;13.52;;;5.45;;
36839;SDS011;24406;51.640;9.566;2024-02-21T18:14:28;9.60;;;5.75;;
36839;SDS011;24406;51.640;9.566;2024-02-21T18:19:35;9.82;;;5.38;;
36839;SDS011;24406;51.640;9.566;2024-02-21T18:24:36;11.32;;;5.97;;
36839;SDS011;24406;51.640;9.566;2024-02-21T18:29:38;10.60;;;4.93;;
36839;SDS011;24406;51.640;9.566;2024-02-21T18:34:41;11.30;;;5.55;;
36839;SDS011;24406;51.640;9.566;2024-02-21T18:39:43;14.32;;;5.45;;
36839;SDS011;24406;51.640;9.566;2024-02-21T18:44:44;9.93;;;5.68;;
36839;SDS011;24406;51.640;9.566;2024-02-21T18:49:48;18.83;;;8.52;;
36839;SDS011;24406;51.640;9.566;2024-02-21T18:54:50;14.48;;;6.07;;
36839;SDS011;24406;51.640;9.566;2024-02-21T18:59:52;10.55;;;4.45;;
36839;SDS011;24406;51.640;9.566;2024-02-21T19:04:56;12.50;;;6.18;;
36839;SDS011;24406;51.640;9.566;2024-02-21T19:10:00;9.70;;;4.32;;
36839;SDS011;24406;51.640;9.566;2024-02-21T19:15:03;11.13;;;5.10;;
36839;SDS011;24406;51.640;9.566;2024-02-21T19:20:08;8.75;;;4.18;;
36839;SDS011;24406;51.640;9.566;2024-02-21T19:25:11;13.35;;;5.18;;
36839;SDS011;24406;51.640;9.566;2024-02-21T19:30:17;7.75;;;4.47;;
36839;SDS011;24406;51.640;9.566;2024-02-21T19:35:22;9.15;;;4.07;;
36839;SDS011;24406;51.640;9.566;2024-02-21T19:40:24;10.10;;;4.63;;
36839;SDS011;24406;51.640;9.566;2024-02-21T19:45:26;8.65;;;4.50;;
36839;SDS011;24406;51.640;9.566;2024-02-21T19:50:29;9.40;;;4.68;;
36839;SDS011;24406;51.640;9.566;2024-02-21T19:55:33;9.02;;;4.50;;
36839;SDS011;24406;51.640;9.566;2024-02-21T20:00:34;10.60;;;4.15;;
36839;SDS011;24406;51.640;9.566;2024-02-21T20:05:39;8.75;;;4.00;;
36839;SDS011;24406;51.640;9.566;2024-02-21T20:10:51;11.68;;;5.50;;
36839;SDS011;24406;51.640;9.566;2024-02-21T20:16:02;7.88;;;3.40;;
36839;SDS011;24406;51.640;9.566;2024-02-21T20:21:05;8.07;;;3.83;;
36839;SDS011;24406;51.640;9.566;2024-02-21T20:26:07;7.50;;;3.65;;
36839;SDS011;24406;51.640;9.566;2024-02-21T20:31:23;9.68;;;3.72;;
36839;SDS011;24406;51.640;9.566;2024-02-21T20:36:41;5.78;;;3.72;;
36839;SDS011;24406;51.640;9.566;2024-02-21T20:42:05;6.90;;;3.63;;
36839;SDS011;24406;51.640;9.566;2024-02-21T20:47:19;6.25;;;3.42;;
36839;SDS011;24406;51.640;9.566;2024-02-21T20:52:30;6.93;;;3.55;;
36839;SDS011;24406;51.640;9.566;2024-02-21T20:57:34;4.88;;;3.20;;
36839;SDS011;24406;51.640;9.566;2024-02-21T21:03:36;9.25;;;3.50;;
36839;SDS011;24406;51.640;9.566;2024-02-21T21:08:48;10.30;;;3.03;;
36839;SDS011;24406;51.640;9.566;2024-02-21T21:19:26;5.40;;;3.20;;
36839;SDS011;24406;51.640;9.566;2024-02-21T21:24:58;7.03;;;3.25;;
36839;SDS011;24406;51.640;9.566;2024-02-21T21:48:03;4.65;;;2.50;;
36839;SDS011;24406;51.640;9.566;2024-02-21T21:54:35;5.53;;;3.05;;
36839;SDS011;24406;51.640;9.566;2024-02-21T21:59:51;7.88;;;2.72;;
36839;SDS011;24406;51.640;9.566;2024-02-21T22:04:54;11.40;;;3.72;;
36839;SDS011;24406;51.640;9.566;2024-02-21T22:09:56;8.07;;;2.70;;
36839;SDS011;24406;51.640;9.566;2024-02-21T22:15:03;6.60;;;3.10;;
36839;SDS011;24406;51.640;9.566;2024-02-21T22:20:20;6.00;;;2.78;;
36839;SDS011;24406;51.640;9.566;2024-02-21T22:30:50;5.18;;;3.13;;
36839;SDS011;24406;51.640;9.566;2024-02-21T22:41:41;6.38;;;3.22;;
36839;SDS011;24406;51.640;9.566;2024-02-21T22:46:46;7.28;;;3.50;;
36839;SDS011;24406;51.640;9.566;2024-02-21T22:51:49;12.95;;;7.32;;
36839;SDS011;24406;51.640;9.566;2024-02-21T22:56:52;6.65;;;3.97;;
36839;SDS011;24406;51.640;9.566;2024-02-21T23:01:57;5.47;;;4.05;;
36839;SDS011;24406;51.640;9.566;2024-02-21T23:07:14;7.25;;;3.45;;
36839;SDS011;24406;51.640;9.566;2024-02-21T23:12:18;6.78;;;4.35;;
36839;SDS011;24406;51.640;9.566;2024-02-21T23:17:22;6.70;;;4.03;;
36839;SDS011;24406;51.640;9.566;2024-02-21T23:22:26;9.02;;;4.13;;
36839;SDS011;24406;51.640;9.566;2024-02-21T23:27:40;5.00;;;3.70;;
36839;SDS011;24406;51.640;9.566;2024-02-21T23:32:42;10.82;;;3.88;;
36839;SDS011;24406;51.640;9.566;2024-02-21T23:37:45;7.15;;;3.80;;
36839;SDS011;24406;51.640;9.566;2024-02-21T23:42:52;6.28;;;3.90;;
36839;SDS011;24406;51.640;9.566;2024-02-21T23:47:56;6.63;;;4.65;;
36839;SDS011;24406;51.640;9.566;2024-02-21T23:53:01;6.10;;;4.63;;
36839;SDS011;24406;51.640;9.566;2024-02-21T23:58:09;7.53;;;4.60;;
